MSC Gina — 3FLY9 — position and weather

sailwx.info

Track history (hours):
 
Tides and Currents Weather Stations Pressure Air Temp Water Temp Dewpoint Dewpoint Depression Visibility Wind Speed Wind Dir Waves Ship Positions

MSC Gina

Last reported at 2015-Apr-16 21:14 UTC. Time now 2015-Apr-19 09:31 UTC.
Position N 38°22' W 032°06'.

Length 259 m; draft 11.1 m.

Type: Ship (hazmat cat A). MMSI: 357542000.

Date/timePositionNaut miles runAvg speedWind from/ knotsBaromVisibWave heightAir tempDewpointWater temp
2015-Apr-16 21:14N 38°22' W 032°06'1417.3
2015-Apr-16 20:25N 38°27' W 031°49'2317.5
2015-Apr-16 19:07N 38°34' W 031°22'2817.5
2015-Apr-16 17:32N 38°44' W 030°49'1717.5
2015-Apr-16 16:33N 38°50' W 030°28'1817.7
2015-Apr-16 15:33N 38°56' W 030°07'1817.7
2015-Apr-16 14:33N 39°02' W 029°46'1817.5
2015-Apr-16 13:33N 39°09' W 029°24'1717.4
2015-Apr-16 12:33N 39°15' W 029°04'1717.3
2015-Apr-16 11:33N 39°21' W 028°43'1717.2
2015-Apr-16 10:33N 39°27' W 028°22'1717.1
2015-Apr-16 09:33N 39°32' W 028°01'1717.2
2015-Apr-16 08:33N 39°38' W 027°40'79916.3
2015-Apr-14 07:32N 38°27' W 010°35'2020.2
2015-Apr-14 06:33N 38°19' W 010°11'2120.7
2015-Apr-14 05:33N 38°11' W 009°48'2020.2
2015-Apr-14 04:33N 38°02' W 009°24'1919.3
2015-Apr-14 03:33N 37°55' W 009°01'9 8.5
2015-Apr-14 02:33N 37°56' W 008°51'0 0.0
2015-Apr-14 01:30N 37°56' W 008°51'0 0.0
2015-Apr-14 00:33N 37°56' W 008°51'0 0.0
2015-Apr-13 23:33N 37°56' W 008°51'0 0.0
2015-Apr-13 22:33N 37°56' W 008°51'0 0.0
2015-Apr-13 21:33N 37°56' W 008°51'0 0.0
2015-Apr-13 20:33N 37°56' W 008°51'0 0.0
2015-Apr-13 19:33N 37°56' W 008°51'0 0.0
2015-Apr-13 18:33N 37°56' W 008°51'0 0.0
2015-Apr-13 17:33N 37°56' W 008°51'2 1.8
2015-Apr-13 16:34N 37°54' W 008°51'1010.2
2015-Apr-13 15:33N 37°45' W 008°57'1918.6
2015-Apr-13 14:33N 37°29' W 009°08'2020.2
2015-Apr-13 13:33N 37°10' W 009°17'4216.9
2015-Apr-13 11:04N 36°37' W 008°43'15720.9
2015-Apr-13 03:33N 35°58' W 005°35'2120.0
2015-Apr-13 02:30N 36°04' W 005°10'19221.0
2015-Apr-12 17:22N 36°34' W 001°14'1821.2
2015-Apr-12 16:32N 36°37' W 000°53'4221.0
2015-Apr-12 14:33N 36°44' W 000°02'21320.9
2015-Apr-12 04:21N 37°20' E 004°22'3720.4
2015-Apr-12 02:33N 37°27' E 005°07'3020.9
2015-Apr-12 01:08N 37°31' E 005°44'4020.2
2015-Apr-11 23:09N 37°38' E 006°34'7720.5
2015-Apr-11 19:24N 37°51' E 008°10'2020.4
2015-Apr-11 18:26N 37°54' E 008°34'4620.3
2015-Apr-11 16:11N 38°00' E 009°32'3420.2
2015-Apr-11 14:29N 38°05' E 010°15'10120.1
2015-Apr-11 09:29N 38°18' E 012°22'1920.4
2015-Apr-11 08:33N 38°19' E 012°46'2020.6
2015-Apr-11 07:34N 38°20' E 013°12'2120.6
2015-Apr-11 06:34N 38°20' E 013°38'2121.0
2015-Apr-11 05:34N 38°20' E 014°05'2420.6
2015-Apr-11 04:25N 38°20' E 014°35'2320.4
2015-Apr-11 03:16N 38°20' E 015°05'1419.6
2015-Apr-11 02:33N 38°24' E 015°22'277 6.6
2015-Apr-09 08:24N 41°38' E 011°05'1314.8
2015-Apr-09 07:31N 41°46' E 010°52'1514.4
2015-Apr-09 06:28N 41°56' E 010°37'1514.6
2015-Apr-09 05:28N 42°05' E 010°21'1814.7
2015-Apr-09 04:13N 42°17' E 010°02'1014.5
2015-Apr-09 03:32N 42°26' E 009°56'1514.9
2015-Apr-09 02:33N 42°40' E 009°49'1414.5
2015-Apr-09 01:33N 42°53' E 009°42'1413.9
2015-Apr-09 00:33N 43°07' E 009°40'1414.2
2015-Apr-08 23:33N 43°21' E 009°44'1514.6
2015-Apr-08 22:33N 43°36' E 009°46'1414.5
2015-Apr-08 21:33N 43°50' E 009°49'1010.0
2015-Apr-08 20:33N 43°60' E 009°52'0 0.1
2015-Apr-08 19:31N 43°60' E 009°52'0 0.0
2015-Apr-08 18:31N 43°60' E 009°52'0 0.0
2015-Apr-08 17:31N 43°60' E 009°52'0 0.0
2015-Apr-08 16:33N 43°60' E 009°52'1 0.7
2015-Apr-08 15:33N 44°00' E 009°52'6 6.1
2015-Apr-08 14:33N 44°06' E 009°51'0 0.0
2015-Apr-08 13:33N 44°06' E 009°51'0 0.0
2015-Apr-08 12:33N 44°06' E 009°51'0 0.0
2015-Apr-08 11:33N 44°06' E 009°51'0 0.0
2015-Apr-08 10:33N 44°06' E 009°51'0 0.0
2015-Apr-08 09:33N 44°06' E 009°51'0 0.0
2015-Apr-08 08:33N 44°06' E 009°51'0 0.0
2015-Apr-08 07:33N 44°06' E 009°51'0 0.0
2015-Apr-08 06:33N 44°06' E 009°51'0 0.0
2015-Apr-08 05:33N 44°06' E 009°51'0 0.0
2015-Apr-08 04:33N 44°06' E 009°51'0 0.0
2015-Apr-08 03:33N 44°06' E 009°51'0 0.0
2015-Apr-08 02:33N 44°06' E 009°51'0 0.0
2015-Apr-08 01:33N 44°06' E 009°51'0 0.0
2015-Apr-08 00:33N 44°06' E 009°51'0 0.0
2015-Apr-07 23:33N 44°06' E 009°51'0 0.0
2015-Apr-07 22:33N 44°06' E 009°51'0 0.0
2015-Apr-07 21:33N 44°06' E 009°51'0 0.0
2015-Apr-07 20:33N 44°06' E 009°51'0 0.0
2015-Apr-07 19:33N 44°06' E 009°51'0 0.0
2015-Apr-07 18:33N 44°06' E 009°51'0 0.0
2015-Apr-07 17:33N 44°06' E 009°51'0 0.0
2015-Apr-07 16:33N 44°06' E 009°51'0 0.0
2015-Apr-07 15:33N 44°06' E 009°51'0 0.0
2015-Apr-07 14:33N 44°06' E 009°51'0 0.0
2015-Apr-07 13:33N 44°06' E 009°51'0 0.3
2015-Apr-07 12:33N 44°06' E 009°51'8 7.5
2015-Apr-07 11:33N 43°60' E 009°57'1818.0
2015-Apr-07 10:33N 43°50' E 009°36'1818.5
2015-Apr-07 09:33N 43°40' E 009°14'2019.5
2015-Apr-07 08:33N 43°30' E 008°51'6720.1
2015-Apr-07 05:15N 42°54' E 007°34'1520.9
2015-Apr-07 04:32N 42°46' E 007°17'15021.3
2015-Apr-06 21:28N 41°25' E 004°26'  
Track history (hours):
 
Tides and Currents Weather Stations Pressure Air Temp Water Temp Dewpoint Dewpoint Depression Visibility Wind Speed Wind Dir Waves Ship Positions

MSC Gina

Last reported at 2015-Apr-16 21:14 UTC. Time now 2015-Apr-19 09:31 UTC.
Position N 38°22' W 032°06'.

Length 259 m; draft 11.1 m.

Type: Ship (hazmat cat A). MMSI: 357542000.

Date/timePositionNaut miles runAvg speedWind from/ knotsBaromVisibWave heightAir tempDewpointWater temp
2015-Apr-16 21:14N 38°22' W 032°06'1417.3
2015-Apr-16 20:25N 38°27' W 031°49'2317.5
2015-Apr-16 19:07N 38°34' W 031°22'2817.5
2015-Apr-16 17:32N 38°44' W 030°49'1717.5
2015-Apr-16 16:33N 38°50' W 030°28'1817.7
2015-Apr-16 15:33N 38°56' W 030°07'1817.7
2015-Apr-16 14:33N 39°02' W 029°46'1817.5
2015-Apr-16 13:33N 39°09' W 029°24'1717.4
2015-Apr-16 12:33N 39°15' W 029°04'1717.3
2015-Apr-16 11:33N 39°21' W 028°43'1717.2
2015-Apr-16 10:33N 39°27' W 028°22'1717.1
2015-Apr-16 09:33N 39°32' W 028°01'1717.2
2015-Apr-16 08:33N 39°38' W 027°40'79916.3
2015-Apr-14 07:32N 38°27' W 010°35'2020.2
2015-Apr-14 06:33N 38°19' W 010°11'2120.7
2015-Apr-14 05:33N 38°11' W 009°48'2020.2
2015-Apr-14 04:33N 38°02' W 009°24'1919.3
2015-Apr-14 03:33N 37°55' W 009°01'9 8.5
2015-Apr-14 02:33N 37°56' W 008°51'0 0.0
2015-Apr-14 01:30N 37°56' W 008°51'0 0.0
2015-Apr-14 00:33N 37°56' W 008°51'0 0.0
2015-Apr-13 23:33N 37°56' W 008°51'0 0.0
2015-Apr-13 22:33N 37°56' W 008°51'0 0.0
2015-Apr-13 21:33N 37°56' W 008°51'0 0.0
2015-Apr-13 20:33N 37°56' W 008°51'0 0.0
2015-Apr-13 19:33N 37°56' W 008°51'0 0.0
2015-Apr-13 18:33N 37°56' W 008°51'0 0.0
2015-Apr-13 17:33N 37°56' W 008°51'2 1.8
2015-Apr-13 16:34N 37°54' W 008°51'1010.2
2015-Apr-13 15:33N 37°45' W 008°57'1918.6
2015-Apr-13 14:33N 37°29' W 009°08'2020.2
2015-Apr-13 13:33N 37°10' W 009°17'4216.9
2015-Apr-13 11:04N 36°37' W 008°43'15720.9
2015-Apr-13 03:33N 35°58' W 005°35'2120.0
2015-Apr-13 02:30N 36°04' W 005°10'19221.0
2015-Apr-12 17:22N 36°34' W 001°14'1821.2
2015-Apr-12 16:32N 36°37' W 000°53'4221.0
2015-Apr-12 14:33N 36°44' W 000°02'21320.9
2015-Apr-12 04:21N 37°20' E 004°22'3720.4
2015-Apr-12 02:33N 37°27' E 005°07'3020.9
2015-Apr-12 01:08N 37°31' E 005°44'4020.2
2015-Apr-11 23:09N 37°38' E 006°34'7720.5
2015-Apr-11 19:24N 37°51' E 008°10'2020.4
2015-Apr-11 18:26N 37°54' E 008°34'4620.3
2015-Apr-11 16:11N 38°00' E 009°32'3420.2
2015-Apr-11 14:29N 38°05' E 010°15'10120.1
2015-Apr-11 09:29N 38°18' E 012°22'1920.4
2015-Apr-11 08:33N 38°19' E 012°46'2020.6
2015-Apr-11 07:34N 38°20' E 013°12'2120.6
2015-Apr-11 06:34N 38°20' E 013°38'2121.0
2015-Apr-11 05:34N 38°20' E 014°05'2420.6
2015-Apr-11 04:25N 38°20' E 014°35'2320.4
2015-Apr-11 03:16N 38°20' E 015°05'1419.6
2015-Apr-11 02:33N 38°24' E 015°22'277 6.6
2015-Apr-09 08:24N 41°38' E 011°05'1314.8
2015-Apr-09 07:31N 41°46' E 010°52'1514.4
2015-Apr-09 06:28N 41°56' E 010°37'1514.6
2015-Apr-09 05:28N 42°05' E 010°21'1814.7
2015-Apr-09 04:13N 42°17' E 010°02'1014.5
2015-Apr-09 03:32N 42°26' E 009°56'1514.9
2015-Apr-09 02:33N 42°40' E 009°49'1414.5
2015-Apr-09 01:33N 42°53' E 009°42'1413.9
2015-Apr-09 00:33N 43°07' E 009°40'1414.2
2015-Apr-08 23:33N 43°21' E 009°44'1514.6
2015-Apr-08 22:33N 43°36' E 009°46'1414.5
2015-Apr-08 21:33N 43°50' E 009°49'1010.0
2015-Apr-08 20:33N 43°60' E 009°52'0 0.1
2015-Apr-08 19:31N 43°60' E 009°52'0 0.0
2015-Apr-08 18:31N 43°60' E 009°52'0 0.0
2015-Apr-08 17:31N 43°60' E 009°52'0 0.0
2015-Apr-08 16:33N 43°60' E 009°52'1 0.7
2015-Apr-08 15:33N 44°00' E 009°52'6 6.1
2015-Apr-08 14:33N 44°06' E 009°51'0 0.0
2015-Apr-08 13:33N 44°06' E 009°51'0 0.0
2015-Apr-08 12:33N 44°06' E 009°51'0 0.0
2015-Apr-08 11:33N 44°06' E 009°51'0 0.0
2015-Apr-08 10:33N 44°06' E 009°51'0 0.0
2015-Apr-08 09:33N 44°06' E 009°51'0 0.0
2015-Apr-08 08:33N 44°06' E 009°51'0 0.0
2015-Apr-08 07:33N 44°06' E 009°51'0 0.0
2015-Apr-08 06:33N 44°06' E 009°51'0 0.0
2015-Apr-08 05:33N 44°06' E 009°51'0 0.0
2015-Apr-08 04:33N 44°06' E 009°51'0 0.0
2015-Apr-08 03:33N 44°06' E 009°51'0 0.0
2015-Apr-08 02:33N 44°06' E 009°51'0 0.0
2015-Apr-08 01:33N 44°06' E 009°51'0 0.0
2015-Apr-08 00:33N 44°06' E 009°51'0 0.0
2015-Apr-07 23:33N 44°06' E 009°51'0 0.0
2015-Apr-07 22:33N 44°06' E 009°51'0 0.0
2015-Apr-07 21:33N 44°06' E 009°51'0 0.0
2015-Apr-07 20:33N 44°06' E 009°51'0 0.0
2015-Apr-07 19:33N 44°06' E 009°51'0 0.0
2015-Apr-07 18:33N 44°06' E 009°51'0 0.0
2015-Apr-07 17:33N 44°06' E 009°51'0 0.0
2015-Apr-07 16:33N 44°06' E 009°51'0 0.0
2015-Apr-07 15:33N 44°06' E 009°51'0 0.0
2015-Apr-07 14:33N 44°06' E 009°51'0 0.0
2015-Apr-07 13:33N 44°06' E 009°51'0 0.3
2015-Apr-07 12:33N 44°06' E 009°51'8 7.5
2015-Apr-07 11:33N 43°60' E 009°57'1818.0
2015-Apr-07 10:33N 43°50' E 009°36'1818.5
2015-Apr-07 09:33N 43°40' E 009°14'2019.5
2015-Apr-07 08:33N 43°30' E 008°51'6720.1
2015-Apr-07 05:15N 42°54' E 007°34'1520.9
2015-Apr-07 04:32N 42°46' E 007°17'15021.3
2015-Apr-06 21:28N 41°25' E 004°26'  

Dump ship's entire track history